CheckWX is a tool to help pilots better visualize weather data.  It is not intended as a substitute for an official pre-flight weather briefing.

06:30:06 UTC

BGGH METAR
Godthaab / Nuuk Airport
Nuuk, Greenland
Current

40 mins ago

BGGH 280550Z AUTO 07013KT 9999NDV FEW026/// M15/M18 Q1010
Observed
Feb-28 @ 05:50 UTC
Wind
  • 070° at 13 KTS
Visibility
Cloud Levels
  • Few at 2,600' AGL
Temperature
-15°C / 5°F
Dewpoint
-18°C / -0°F
Humidity
78%
Altimeter
29.82" Hg
Pressure
1009.92 hPa
Previous

2 hours ago

BGGH 280450Z AUTO 07012KT 9999NDV FEW025/// M15/M18 Q1010
Observed
Feb-28 @ 04:50 UTC
Wind
  • 070° at 12 KTS
Visibility
Cloud Levels
  • Few at 2,500' AGL
Temperature
-15°C / 5°F
Dewpoint
-18°C / -0°F
Humidity
78%
Altimeter
29.82" Hg
Pressure
1009.92 hPa
Previous

3 hours ago

BGGH 280350Z AUTO 07010KT 9999NDV FEW023/// SCT120/// M15/M19 Q1011
Observed
Feb-28 @ 03:50 UTC
Wind
  • 070° at 10 KTS
Visibility
Cloud Levels
  • Few at 2,300' AGL
  • Scattered at 12,000' AGL
Temperature
-15°C / 5°F
Dewpoint
-19°C / -2°F
Humidity
72%
Altimeter
29.85" Hg
Pressure
1010.92 hPa